Time;durP1;ratioP1;P1;durP2;ratioP2;P2;SDS_P1;SDS_P2;PMS_P1;PMS_P2;Temp;Humidity;BMP_temperature;BMP_pressure;BME280_temperature;BME280_humidity;BME280_pressure;Samples;Min_cycle;Max_cycle;Signal;HPM_P1;HPM_P2
2021/12/25 00:00:51;;;;;;;5.20;3.83;;;;;;;-1.48;54.52;100713.75;5078611;28;20473;-66
2021/12/25 00:03:16;;;;;;;7.07;3.60;;;;;;;-1.30;54.15;100726.75;5077552;28;20415;-66
2021/12/25 00:05:43;;;;;;;6.77;4.80;;;;;;;-1.38;54.58;100723.72;5078253;28;20467;-66
2021/12/25 00:08:08;;;;;;;4.93;3.53;;;;;;;-1.47;54.49;100730.00;5083054;28;20169;-66
2021/12/25 00:10:34;;;;;;;7.03;4.90;;;;;;;-1.49;55.33;100727.31;5084758;28;20426;-68
2021/12/25 00:12:59;;;;;;;9.30;6.50;;;;;;;-1.51;55.89;100734.03;5083831;28;20173;-65
2021/12/25 00:15:24;;;;;;;7.93;6.50;;;;;;;-1.24;55.44;100733.88;5079321;28;20176;-67
2021/12/25 00:17:50;;;;;;;7.50;6.10;;;;;;;-1.30;54.67;100738.63;5078557;28;20173;-66
2021/12/25 00:20:16;;;;;;;4.00;3.50;;;;;;;-1.51;57.09;100753.63;5077597;28;20291;-66
2021/12/25 00:22:41;;;;;;;5.20;4.60;;;;;;;-1.28;56.14;100755.81;5078455;28;20168;-66
2021/12/25 00:25:07;;;;;;;6.27;4.87;;;;;;;-1.37;55.92;100753.63;5078673;28;20596;-67
2021/12/25 00:27:41;;;;;;;4.40;4.00;;;;;;;-1.28;57.07;100760.94;5078683;28;20165;-66
2021/12/25 00:30:21;;;;;;;7.90;4.07;;;;;;;-1.49;55.50;100768.22;5079046;28;20157;-66
2021/12/25 00:33:01;;;;;;;4.77;4.00;;;;;;;-1.20;58.08;100764.81;5078100;28;20439;-66
2021/12/25 00:35:27;;;;;;;5.37;4.53;;;;;;;-1.41;56.87;100771.25;5078186;28;20460;-65
2021/12/25 00:37:52;;;;;;;7.53;5.93;;;;;;;-1.40;56.39;100776.44;5078168;28;20408;-66
2021/12/25 00:40:18;;;;;;;5.60;4.10;;;;;;;-1.61;56.01;100781.19;5077874;28;20639;-66
2021/12/25 00:42:43;;;;;;;8.80;4.70;;;;;;;-1.30;57.76;100783.00;5078143;28;20434;-65
2021/12/25 00:45:09;;;;;;;5.60;4.80;;;;;;;-1.43;56.95;100783.94;5077935;28;20418;-66
2021/12/25 00:47:35;;;;;;;5.90;4.40;;;;;;;-1.49;57.39;100783.56;5077990;28;20175;-70
2021/12/25 00:50:00;;;;;;;5.30;4.80;;;;;;;-1.46;55.93;100785.44;5078492;28;20256;-66
2021/12/25 00:52:25;;;;;;;6.10;5.50;;;;;;;-1.68;56.60;100789.28;5077827;28;20213;-65
2021/12/25 00:54:50;;;;;;;5.53;4.97;;;;;;;-2.07;57.23;100793.75;5078005;28;20196;-66
2021/12/25 00:57:16;;;;;;;6.90;5.30;;;;;;;-1.73;57.06;100801.78;5078167;28;20165;-66
2021/12/25 00:59:41;;;;;;;5.67;5.10;;;;;;;-1.65;56.73;100804.81;5079105;28;20200;-70
2021/12/25 01:02:06;;;;;;;6.20;4.80;;;;;;;-2.03;56.93;100811.00;5083812;28;20547;-67
2021/12/25 01:04:32;;;;;;;6.60;4.60;;;;;;;-1.48;58.21;100804.94;5085991;28;20534;-66
2021/12/25 01:06:57;;;;;;;7.90;5.63;;;;;;;-1.41;58.65;100807.94;5080127;28;20173;-69
2021/12/25 01:09:22;;;;;;;6.50;5.80;;;;;;;-1.73;57.41;100811.16;5078374;28;20277;-65
2021/12/25 01:11:50;;;;;;;9.03;5.67;;;;;;;-1.58;58.04;100816.28;5078668;28;20192;-66
2021/12/25 01:20:04;;;;;;;8.30;6.50;;;;;;;-1.92;58.54;100832.13;5081724;28;20945;-68
2021/12/25 01:23:10;;;;;;;9.10;6.00;;;;;;;-2.03;57.38;100842.56;5082122;28;20418;-66
2021/12/25 01:31:04;;;;;;;7.30;5.43;;;;;;;-1.58;57.95;100832.50;5052029;28;20419;-65
2021/12/25 01:38:55;;;;;;;18.10;10.37;;;;;;;-1.91;57.13;100837.34;5081361;28;20223;-66
2021/12/25 01:49:33;;;;;;;7.60;6.00;;;;;;;-2.73;59.87;100842.44;5081233;28;20418;-66
2021/12/25 01:51:59;;;;;;;9.00;6.30;;;;;;;-2.35;59.96;100847.31;5080948;28;20864;-66
2021/12/25 01:54:24;;;;;;;7.67;5.47;;;;;;;-2.32;59.11;100844.97;5080876;28;20189;-65
2021/12/25 01:56:50;;;;;;;7.07;5.73;;;;;;;-2.50;58.33;100840.47;5081286;28;20483;-66
2021/12/25 01:59:16;;;;;;;6.27;5.30;;;;;;;-2.28;59.15;100847.81;5082949;28;20251;-66
2021/12/25 02:01:41;;;;;;;5.20;4.70;;;;;;;-2.26;59.14;100847.91;5082032;28;20165;-66
2021/12/25 02:04:07;;;;;;;8.07;6.23;;;;;;;-2.15;58.19;100852.03;5081240;28;20410;-65
2021/12/25 02:06:32;;;;;;;6.63;5.30;;;;;;;-2.29;58.19;100860.50;5080740;28;20171;-65
2021/12/25 02:08:58;;;;;;;7.67;6.33;;;;;;;-2.19;57.45;100865.41;5079984;28;20172;-65
2021/12/25 02:11:24;;;;;;;6.07;5.00;;;;;;;-2.30;59.79;100861.25;5081313;28;20430;-66
2021/12/25 02:13:50;;;;;;;9.13;6.13;;;;;;;-2.51;57.84;100866.78;5080400;28;20279;-66
2021/12/25 02:16:18;;;;;;;7.00;4.90;;;;;;;-2.44;58.27;100861.28;5079768;28;20411;-65
2021/12/25 02:21:19;;;;;;;8.23;4.90;;;;;;;-2.72;58.33;100874.81;5080331;28;20407;-66
2021/12/25 02:23:44;;;;;;;7.13;5.33;;;;;;;-2.29;58.14;100870.69;5080114;28;20443;-66
2021/12/25 02:26:10;;;;;;;8.10;5.50;;;;;;;-2.33;58.01;100868.75;5079937;28;20430;-65
2021/12/25 02:28:35;;;;;;;6.47;4.87;;;;;;;-2.44;57.84;100876.59;5079924;28;20169;-65
2021/12/25 02:31:05;;;;;;;7.60;4.57;;;;;;;-2.82;58.51;100880.09;5080586;28;20172;-66
2021/12/25 02:33:31;;;;;;;7.70;5.30;;;;;;;-2.72;58.57;100879.94;5080024;28;20172;-65
2021/12/25 02:35:57;;;;;;;12.80;7.60;;;;;;;-2.16;58.25;100873.25;5079962;28;20431;-66
2021/12/25 02:38:23;;;;;;;5.80;5.20;;;;;;;-2.43;59.28;100877.50;5081038;28;20165;-66
2021/12/25 02:40:50;;;;;;;10.43;7.20;;;;;;;-2.31;58.57;100868.06;5080314;28;20494;-65
2021/12/25 02:43:16;;;;;;;6.40;4.60;;;;;;;-2.53;58.45;100876.00;5079645;28;20415;-65
2021/12/25 02:45:41;;;;;;;7.17;5.03;;;;;;;-2.89;58.57;100881.34;5082998;28;20808;-65
2021/12/25 02:48:09;;;;;;;8.13;6.37;;;;;;;-2.60;59.19;100879.84;5080079;28;20164;-66
2021/12/25 02:50:35;;;;;;;4.40;4.00;;;;;;;-3.06;58.34;100882.81;5080142;28;20407;-66
2021/12/25 02:53:02;;;;;;;7.87;5.80;;;;;;;-2.91;58.78;100880.38;5079635;28;20459;-66
2021/12/25 02:55:28;;;;;;;8.20;6.07;;;;;;;-2.41;58.88;100879.34;5079480;28;20522;-65
2021/12/25 02:57:55;;;;;;;6.13;4.63;;;;;;;-2.56;58.17;100878.34;5080048;28;20472;-66
2021/12/25 03:00:25;;;;;;;4.37;3.97;;;;;;;-2.66;58.45;100891.31;5078667;28;20478;-66
2021/12/25 03:02:50;;;;;;;5.20;4.10;;;;;;;-2.80;57.56;100891.31;5079430;28;20650;-65
2021/12/25 03:05:15;;;;;;;7.17;5.10;;;;;;;-2.55;57.94;100895.44;5079983;28;20411;-66
2021/12/25 03:07:41;;;;;;;7.60;5.00;;;;;;;-2.41;57.75;100892.13;5078762;28;20488;-65
2021/12/25 03:10:07;;;;;;;6.90;4.97;;;;;;;-2.42;58.10;100898.00;5079461;28;20178;-65
2021/12/25 03:12:46;;;;;;;7.43;5.30;;;;;;;-2.29;57.45;100903.91;5079758;28;20243;-65
2021/12/25 03:15:18;;;;;;;7.27;5.20;;;;;;;-2.34;57.50;100910.38;5079507;28;20411;-66
2021/12/25 03:17:44;;;;;;;8.20;5.10;;;;;;;-2.30;58.42;100910.69;5078825;28;20671;-66
2021/12/25 03:20:11;;;;;;;7.87;5.50;;;;;;;-2.57;58.47;100910.66;5079255;28;20462;-67
2021/12/25 03:22:37;;;;;;;4.80;4.30;;;;;;;-2.28;57.97;100909.09;5078678;28;20411;-66
2021/12/25 03:25:08;;;;;;;7.87;4.37;;;;;;;-2.37;58.01;100904.31;5080001;28;20435;-65
2021/12/25 03:27:36;;;;;;;7.43;4.17;;;;;;;-2.74;58.63;100912.09;5079299;28;20420;-65
2021/12/25 03:30:02;;;;;;;4.50;4.07;;;;;;;-2.64;58.63;100916.16;5079288;28;20418;-66
2021/12/25 03:32:27;;;;;;;5.00;3.80;;;;;;;-2.33;58.69;100917.25;5079340;28;20879;-65
2021/12/25 03:34:53;;;;;;;7.43;4.97;;;;;;;-2.33;58.06;100919.81;5080701;28;20419;-66
2021/12/25 03:37:18;;;;;;;6.00;4.13;;;;;;;-2.48;58.32;100920.56;5079672;28;20176;-65
2021/12/25 03:39:43;;;;;;;4.80;4.30;;;;;;;-2.65;58.96;100926.25;5079514;28;20566;-66
2021/12/25 03:42:08;;;;;;;7.40;4.10;;;;;;;-2.67;59.23;100917.63;5078889;28;20205;-65
2021/12/25 03:44:35;;;;;;;5.50;4.60;;;;;;;-2.42;59.00;100923.53;5079097;28;20244;-66
2021/12/25 03:47:10;;;;;;;7.03;5.20;;;;;;;-2.47;58.34;100909.59;5079571;28;20165;-67
2021/12/25 03:53:07;;;;;;;11.60;6.37;;;;;;;-2.68;59.02;100918.41;5078760;28;20410;-66
2021/12/25 03:57:54;;;;;;;5.10;4.57;;;;;;;-2.45;57.84;100925.91;5078752;28;20418;-66
2021/12/25 04:00:27;;;;;;;4.27;3.60;;;;;;;-2.62;58.08;100927.34;5078677;28;20455;-65
2021/12/25 04:02:57;;;;;;;5.87;4.40;;;;;;;-2.58;59.30;100918.22;5079691;28;20422;-66
2021/12/25 04:05:27;;;;;;;6.57;4.67;;;;;;;-2.53;57.72;100927.03;5087778;28;20816;-65
2021/12/25 04:10:18;;;;;;;5.00;3.90;;;;;;;-2.76;58.27;100931.53;5087894;28;20395;-66
2021/12/25 04:12:43;;;;;;;6.63;4.57;;;;;;;-2.88;58.87;100931.59;5078996;28;20534;-65
2021/12/25 04:15:09;;;;;;;4.37;3.97;;;;;;;-2.55;59.23;100932.06;5079319;28;20176;-65
2021/12/25 04:17:35;;;;;;;5.50;3.73;;;;;;;-2.52;58.85;100931.38;5079642;28;20424;-66
2021/12/25 04:20:03;;;;;;;6.73;4.17;;;;;;;-2.57;60.14;100933.63;5077653;28;20193;-66
2021/12/25 04:22:36;;;;;;;5.10;3.90;;;;;;;-2.63;60.46;100934.91;5077464;28;20697;-65
2021/12/25 04:25:02;;;;;;;8.43;4.10;;;;;;;-2.59;59.41;100924.09;5078374;28;20415;-66
2021/12/25 04:27:27;;;;;;;8.70;4.00;;;;;;;-2.59;58.27;100929.22;5079564;28;20411;-66
2021/12/25 04:30:18;;;;;;;4.87;4.23;;;;;;;-2.57;58.56;100930.19;5080195;28;20161;-66
2021/12/25 04:33:26;;;;;;;5.20;4.10;;;;;;;-2.52;57.73;100931.38;5078930;28;20196;-66
2021/12/25 05:03:34;;;;;;;6.20;4.00;;;;;;;-2.74;62.57;100952.94;5012645;28;20485;-68
2021/12/25 05:06:00;;;;;;;4.60;4.17;;;;;;;-2.97;60.73;100958.16;5075774;28;20429;-65
2021/12/25 05:08:25;;;;;;;6.97;4.37;;;;;;;-2.77;60.74;100954.41;5081836;28;20408;-66
2021/12/25 05:10:51;;;;;;;6.40;4.53;;;;;;;-2.91;62.41;100959.47;5081808;28;20415;-65
2021/12/25 05:13:16;;;;;;;6.03;4.60;;;;;;;-2.90;62.03;100950.13;5081737;28;20381;-66
2021/12/25 05:15:42;;;;;;;6.23;4.60;;;;;;;-2.82;60.58;100948.97;5082043;28;20165;-66
2021/12/25 05:18:07;;;;;;;4.60;4.00;;;;;;;-2.93;60.88;100961.00;5081861;28;20218;-66
2021/12/25 05:20:33;;;;;;;4.37;3.90;;;;;;;-3.06;61.64;100959.31;5080884;28;20742;-65
2021/12/25 05:22:58;;;;;;;4.90;3.70;;;;;;;-2.73;61.69;100959.81;5082071;28;20157;-65
2021/12/25 05:25:23;;;;;;;5.43;4.20;;;;;;;-2.64;61.64;100948.44;5081500;28;20430;-66
2021/12/25 05:27:49;;;;;;;4.57;4.00;;;;;;;-2.75;61.66;100953.72;5081557;28;20179;-65
2021/12/25 05:30:17;;;;;;;5.40;4.40;;;;;;;-2.45;60.83;100951.44;5082154;28;20522;-66
2021/12/25 05:32:43;;;;;;;7.20;4.63;;;;;;;-2.81;60.87;100955.84;5081619;28;20415;-65
2021/12/25 05:35:08;;;;;;;8.63;5.10;;;;;;;-2.71;61.07;100955.69;5081219;28;20817;-66
2021/12/25 05:37:33;;;;;;;5.40;4.30;;;;;;;-2.69;60.99;100960.91;5083487;28;20176;-65
2021/12/25 05:40:00;;;;;;;6.20;4.07;;;;;;;-2.61;61.24;100953.72;5084195;28;20212;-66
2021/12/25 05:42:26;;;;;;;7.37;5.00;;;;;;;-2.94;61.66;100960.91;5081206;28;20335;-66
2021/12/25 05:44:52;;;;;;;5.50;5.00;;;;;;;-3.03;62.54;100961.19;5080869;28;20442;-66
2021/12/25 05:47:17;;;;;;;8.23;4.50;;;;;;;-3.14;63.13;100959.56;5081035;28;20173;-66
2021/12/25 05:49:42;;;;;;;4.37;3.97;;;;;;;-2.83;62.07;100965.06;5081053;28;20267;-66
2021/12/25 05:52:08;;;;;;;4.77;3.93;;;;;;;-2.96;63.34;100965.06;5081085;28;20236;-66
2021/12/25 05:54:34;;;;;;;8.10;5.07;;;;;;;-3.09;63.40;100964.19;5080707;28;21662;-65
2021/12/25 05:57:00;;;;;;;8.70;4.60;;;;;;;-3.01;62.83;100961.28;5080869;28;20421;-66
2021/12/25 05:59:25;;;;;;;5.70;3.63;;;;;;;-3.00;62.43;100963.03;5080070;28;20199;-66
2021/12/25 06:01:50;;;;;;;5.93;4.50;;;;;;;-2.96;62.43;100971.03;5082593;28;20479;-66
2021/12/25 06:04:16;;;;;;;5.10;4.40;;;;;;;-3.07;63.20;100980.50;5093231;28;20461;-66
2021/12/25 06:06:41;;;;;;;10.67;4.47;;;;;;;-2.98;62.01;100981.91;5081291;28;20180;-65
2021/12/25 06:09:09;;;;;;;5.90;4.37;;;;;;;-3.15;62.68;100973.09;5080748;28;20193;-66
2021/12/25 06:11:36;;;;;;;4.43;4.00;;;;;;;-3.11;62.93;100975.97;5080539;28;20172;-66
2021/12/25 06:14:11;;;;;;;6.17;4.10;;;;;;;-3.22;63.22;100981.97;5063042;28;20683;-67
2021/12/25 06:16:38;;;;;;;4.47;3.90;;;;;;;-2.90;63.28;100976.53;5081078;28;20426;-66
2021/12/25 06:19:04;;;;;;;4.80;4.30;;;;;;;-2.81;61.63;100977.94;5080578;28;20636;-65
2021/12/25 06:21:29;;;;;;;5.03;4.40;;;;;;;-3.22;63.86;100979.44;5080436;28;20425;-66
2021/12/25 06:23:56;;;;;;;5.67;4.23;;;;;;;-3.08;63.35;100983.81;5080701;28;20486;-65
2021/12/25 06:26:21;;;;;;;5.37;4.47;;;;;;;-3.11;63.60;100986.16;5080334;28;20256;-66
2021/12/25 06:28:46;;;;;;;4.70;4.20;;;;;;;-2.89;62.71;100980.84;5080277;28;20800;-66
2021/12/25 06:31:11;;;;;;;6.30;4.13;;;;;;;-3.14;63.55;100982.50;5080868;28;20211;-66
2021/12/25 06:33:37;;;;;;;7.00;4.20;;;;;;;-3.15;63.38;100978.19;5080070;28;20268;-66
2021/12/25 06:36:04;;;;;;;4.90;4.20;;;;;;;-3.02;64.78;100985.03;5080111;28;20177;-66
2021/12/25 06:38:29;;;;;;;4.03;3.60;;;;;;;-3.20;63.78;100982.97;5080030;28;20257;-66
2021/12/25 06:40:54;;;;;;;4.50;4.10;;;;;;;-3.25;63.70;100981.78;5079893;28;20919;-66
2021/12/25 06:43:19;;;;;;;6.00;4.20;;;;;;;-3.29;63.98;100987.44;5079708;28;20230;-66
2021/12/25 06:45:45;;;;;;;6.40;4.50;;;;;;;-3.37;64.98;100992.00;5080558;28;20222;-65
2021/12/25 06:48:10;;;;;;;7.57;4.10;;;;;;;-3.17;65.38;100995.94;5079906;28;20436;-66
2021/12/25 06:50:35;;;;;;;4.87;4.37;;;;;;;-3.52;64.65;100993.50;5080095;28;20180;-65
2021/12/25 06:53:01;;;;;;;5.70;4.80;;;;;;;-3.32;64.49;101000.84;5080052;28;20225;-65
2021/12/25 06:55:26;;;;;;;4.50;4.10;;;;;;;-3.58;64.28;101007.56;5079567;28;20254;-66
2021/12/25 06:57:54;;;;;;;6.70;4.33;;;;;;;-3.45;65.33;100998.22;5079435;28;20173;-66
2021/12/25 07:00:21;;;;;;;8.43;4.90;;;;;;;-3.50;65.30;100997.91;5079534;28;20211;-66
2021/12/25 07:02:47;;;;;;;8.47;4.40;;;;;;;-3.46;64.19;100997.34;5079510;28;20617;-65
2021/12/25 07:05:12;;;;;;;4.50;4.10;;;;;;;-3.32;64.00;100998.31;5079991;28;20430;-67
2021/12/25 07:07:37;;;;;;;7.20;4.17;;;;;;;-3.23;63.71;101001.50;5082582;28;20257;-66
2021/12/25 07:10:03;;;;;;;7.63;4.70;;;;;;;-3.29;64.17;101005.28;5083221;28;20172;-68
2021/12/25 07:12:31;;;;;;;4.97;4.20;;;;;;;-3.43;64.76;101001.78;5083076;28;20189;-65
2021/12/25 07:14:57;;;;;;;4.33;3.93;;;;;;;-3.23;64.14;101010.81;5080576;28;20447;-66
2021/12/25 07:17:22;;;;;;;5.33;4.40;;;;;;;-3.61;64.51;101015.00;5079489;28;20426;-66
2021/12/25 07:19:47;;;;;;;25.87;14.37;;;;;;;-3.46;67.55;101017.75;5079820;28;20585;-66
2021/12/25 07:22:13;;;;;;;8.83;5.70;;;;;;;-3.30;64.88;101016.25;5079346;28;20572;-66
2021/12/25 07:24:38;;;;;;;7.80;5.00;;;;;;;-3.48;64.73;101024.38;5079233;28;20200;-65
2021/12/25 07:27:05;;;;;;;5.43;4.93;;;;;;;-3.46;64.91;101017.75;5079765;28;20183;-66
2021/12/25 07:29:31;;;;;;;5.77;4.67;;;;;;;-3.13;64.21;101025.09;5079317;28;20180;-66
2021/12/25 07:31:56;;;;;;;7.50;4.83;;;;;;;-3.22;64.38;101031.31;5079092;28;20680;-66
2021/12/25 07:34:21;;;;;;;6.20;4.40;;;;;;;-3.44;65.20;101031.47;5079492;28;20408;-68
2021/12/25 07:36:47;;;;;;;5.20;4.73;;;;;;;-3.23;63.60;101039.75;5079043;28;20221;-66
2021/12/25 07:39:12;;;;;;;6.23;5.20;;;;;;;-3.56;65.26;101044.25;5078853;28;20180;-66
2021/12/25 07:41:37;;;;;;;4.67;4.23;;;;;;;-3.67;64.87;101046.81;5079504;28;20200;-65
2021/12/25 07:44:03;;;;;;;5.13;4.63;;;;;;;-3.27;64.82;101045.41;5084137;28;20179;-65
2021/12/25 07:46:28;;;;;;;5.00;4.30;;;;;;;-3.25;64.05;101045.50;5079524;28;20523;-67
2021/12/25 07:48:54;;;;;;;10.90;4.63;;;;;;;-3.16;63.87;101047.84;5079515;28;20550;-66
2021/12/25 07:51:19;;;;;;;5.50;4.50;;;;;;;-3.22;64.00;101045.72;5079386;28;20180;-66
2021/12/25 07:53:45;;;;;;;5.33;4.83;;;;;;;-2.96;63.62;101036.47;5078813;28;20184;-66
2021/12/25 07:56:11;;;;;;;6.93;4.73;;;;;;;-3.23;64.19;101043.97;5079245;28;20456;-65
2021/12/25 07:58:36;;;;;;;4.90;4.40;;;;;;;-3.22;64.50;101050.81;5078660;28;20199;-66
2021/12/25 08:01:02;;;;;;;5.67;5.07;;;;;;;-3.11;63.27;101055.03;5078480;28;20856;-66
2021/12/25 08:03:27;;;;;;;5.53;4.93;;;;;;;-3.25;63.69;101048.06;5079020;28;20187;-66
2021/12/25 08:05:53;;;;;;;5.57;4.87;;;;;;;-3.05;63.46;101052.88;5078828;28;20480;-66
2021/12/25 08:08:18;;;;;;;5.13;4.63;;;;;;;-2.69;63.00;101047.66;5078305;28;20202;-65
2021/12/25 08:10:44;;;;;;;6.40;4.73;;;;;;;-2.96;63.28;101054.31;5078892;28;20165;-66
2021/12/25 08:13:09;;;;;;;5.20;4.70;;;;;;;-3.38;63.63;101056.53;5078406;28;20169;-66
2021/12/25 08:15:35;;;;;;;5.50;4.80;;;;;;;-2.88;63.08;101063.41;5078872;28;20448;-66
2021/12/25 08:18:01;;;;;;;8.67;4.90;;;;;;;-3.07;63.64;101069.75;5078816;28;20180;-66
2021/12/25 08:20:26;;;;;;;6.20;5.17;;;;;;;-3.28;64.01;101069.13;5078611;28;20209;-66
2021/12/25 08:22:51;;;;;;;5.40;4.90;;;;;;;-2.99;62.81;101071.94;5078315;28;20481;-66
2021/12/25 08:25:17;;;;;;;7.87;4.97;;;;;;;-2.76;62.40;101066.78;5078112;28;20168;-66
2021/12/25 08:27:44;;;;;;;5.70;4.87;;;;;;;-2.73;62.61;101061.88;5077894;28;20227;-66
2021/12/25 08:30:13;;;;;;;9.20;5.40;;;;;;;-2.60;62.51;101062.72;5078195;28;20797;-66
2021/12/25 08:32:39;;;;;;;13.50;5.50;;;;;;;-2.99;63.32;101071.94;5078602;28;20722;-66
2021/12/25 08:35:05;;;;;;;10.83;5.17;;;;;;;-2.74;62.38;101057.53;5078408;28;20416;-66
2021/12/25 08:37:31;;;;;;;5.87;4.90;;;;;;;-2.49;62.81;101050.66;5077776;28;20868;-66
2021/12/25 08:39:57;;;;;;;5.83;4.50;;;;;;;-0.11;56.85;101040.72;5078567;28;20570;-65
2021/12/25 08:42:23;;;;;;;8.33;5.07;;;;;;;1.00;51.64;101034.00;5086780;28;20419;-66
2021/12/25 08:47:23;;;;;;;4.67;4.27;;;;;;;2.38;48.34;101039.97;5084711;28;20419;-66
2021/12/25 08:49:49;;;;;;;6.03;5.17;;;;;;;2.79;47.94;101038.47;5077747;28;20853;-66
2021/12/25 08:52:16;;;;;;;5.93;4.87;;;;;;;3.10;46.24;101043.31;5077793;28;20466;-66
2021/12/25 08:54:43;;;;;;;6.53;5.07;;;;;;;2.47;52.49;101036.13;5077453;28;20203;-67
2021/12/25 08:57:09;;;;;;;8.27;5.43;;;;;;;2.69;48.37;101039.72;5078169;28;20407;-66
2021/12/25 08:59:36;;;;;;;6.10;5.50;;;;;;;4.12;45.09;101036.44;5077441;28;20533;-67
2021/12/25 09:02:04;;;;;;;5.50;4.40;;;;;;;4.38;43.54;101040.06;5077853;28;20457;-66
2021/12/25 09:04:30;;;;;;;5.73;5.23;;;;;;;3.24;45.33;101053.34;5078510;28;20858;-66
2021/12/25 09:06:55;;;;;;;5.50;4.73;;;;;;;3.22;45.66;101048.13;5077867;28;20394;-66
2021/12/25 09:09:21;;;;;;;6.10;4.57;;;;;;;3.06;45.24;101055.97;5077191;28;20181;-66
2021/12/25 09:11:46;;;;;;;5.43;4.60;;;;;;;3.54;44.12;101058.97;5078427;28;20170;-66
2021/12/25 09:14:12;;;;;;;4.90;4.50;;;;;;;4.53;43.43;101053.59;5077735;28;20176;-66
2021/12/25 09:16:37;;;;;;;4.80;4.30;;;;;;;5.19;41.81;101054.31;5078055;28;20554;-66
2021/12/25 09:19:02;;;;;;;4.37;3.97;;;;;;;4.00;43.53;101062.59;5078227;28;20173;-66
2021/12/25 09:21:28;;;;;;;4.40;4.00;;;;;;;3.45;43.77;101072.34;5077896;28;20169;-65
2021/12/25 09:23:53;;;;;;;6.60;4.50;;;;;;;3.71;43.72;101067.44;5076828;28;20259;-67
2021/12/25 09:26:18;;;;;;;4.77;4.20;;;;;;;3.17;44.39;101063.38;5078292;28;20185;-66
2021/12/25 09:28:45;;;;;;;4.83;4.23;;;;;;;4.82;42.77;101055.53;5077069;28;20168;-67
2021/12/25 09:31:11;;;;;;;5.33;4.83;;;;;;;4.64;43.19;101056.59;5077920;28;20168;-65
2021/12/25 09:33:36;;;;;;;5.70;4.23;;;;;;;4.61;42.11;101058.16;5078097;28;20399;-66
2021/12/25 09:36:02;;;;;;;5.83;4.53;;;;;;;4.62;42.08;101063.38;5078286;28;20179;-66
2021/12/25 09:38:29;;;;;;;4.80;4.30;;;;;;;4.51;42.00;101062.94;5081041;28;20264;-67
2021/12/25 09:40:56;;;;;;;5.57;5.07;;;;;;;4.60;41.66;101067.63;5085532;28;20494;-66
2021/12/25 09:43:21;;;;;;;5.17;4.57;;;;;;;3.95;42.74;101067.59;5083592;28;20490;-65
2021/12/25 09:45:46;;;;;;;5.20;4.70;;;;;;;4.20;42.21;101068.59;5080974;28;20396;-66
2021/12/25 09:48:12;;;;;;;4.87;4.47;;;;;;;4.68;42.36;101073.97;5081131;28;20185;-65
2021/12/25 09:50:37;;;;;;;7.20;4.40;;;;;;;4.99;40.99;101066.47;5080300;28;20173;-66
2021/12/25 09:53:07;;;;;;;4.73;4.13;;;;;;;4.80;41.64;101072.66;5080424;28;20208;-66
2021/12/25 09:55:33;;;;;;;5.30;4.80;;;;;;;4.88;42.24;101071.25;5080352;28;20284;-66
2021/12/25 09:57:58;;;;;;;4.80;4.40;;;;;;;4.53;42.59;101073.34;5080627;28;20382;-66
2021/12/25 10:00:24;;;;;;;6.27;3.70;;;;;;;5.17;42.16;101069.75;5080783;28;20208;-65
2021/12/25 10:02:52;;;;;;;4.00;3.60;;;;;;;4.78;41.70;101076.91;5080744;28;20169;-66
2021/12/25 10:05:24;;;;;;;5.27;4.10;;;;;;;5.37;42.37;101073.09;5080488;28;20171;-66
2021/12/25 10:08:00;;;;;;;4.37;4.00;;;;;;;5.51;41.07;101070.13;5080682;28;20386;-68
2021/12/25 10:10:46;;;;;;;4.40;4.00;;;;;;;5.32;41.29;101074.63;5083360;28;20382;-68
2021/12/25 10:13:27;;;;;;;4.60;3.60;;;;;;;5.02;41.26;101072.66;5084651;28;20424;-67
2021/12/25 10:15:55;;;;;;;4.80;3.83;;;;;;;5.70;41.58;101071.63;5081935;28;20461;-67
2021/12/25 10:18:30;;;;;;;4.47;4.03;;;;;;;5.97;41.55;101070.84;5080633;28;20415;-66
2021/12/25 10:20:55;;;;;;;5.17;3.80;;;;;;;5.48;42.11;101080.31;5079604;28;20850;-66
2021/12/25 10:23:29;;;;;;;4.30;3.97;;;;;;;4.86;43.26;101076.34;5080005;28;20430;-67
2021/12/25 10:25:59;;;;;;;5.80;4.20;;;;;;;4.05;45.79;101079.16;5080244;28;20264;-66
2021/12/25 10:28:34;;;;;;;4.63;4.23;;;;;;;5.20;43.75;101072.44;5080133;28;20404;-66
2021/12/25 10:31:02;;;;;;;4.63;4.23;;;;;;;5.18;42.96;101065.47;5080165;28;20451;-66
2021/12/25 10:33:34;;;;;;;4.50;4.10;;;;;;;4.16;45.86;101074.44;5080023;28;20418;-67
2021/12/25 10:36:04;;;;;;;5.37;4.50;;;;;;;4.29;45.37;101074.13;5080331;28;20407;-66
2021/12/25 10:38:30;;;;;;;6.63;4.67;;;;;;;5.02;43.66;101070.06;5080452;28;20481;-67
2021/12/25 10:41:20;;;;;;;5.57;5.03;;;;;;;5.02;43.46;101072.66;5080301;28;20538;-66
2021/12/25 10:43:47;;;;;;;5.67;5.13;;;;;;;4.94;43.95;101070.59;5079757;28;20204;-66
2021/12/25 10:46:14;;;;;;;6.80;5.37;;;;;;;4.66;44.77;101072.13;5079669;28;20418;-66
2021/12/25 10:48:39;;;;;;;5.83;5.30;;;;;;;5.61;43.50;101050.63;5078844;28;20446;-66
2021/12/25 10:51:05;;;;;;;6.60;5.10;;;;;;;5.97;43.78;101061.34;5080215;28;20397;-66
2021/12/25 10:53:37;;;;;;;5.70;5.20;;;;;;;5.47;44.41;101063.94;5079263;28;20296;-65
2021/12/25 10:56:08;;;;;;;8.43;4.77;;;;;;;4.48;45.68;101075.75;5079493;28;20192;-66
2021/12/25 10:58:33;;;;;;;6.10;4.90;;;;;;;5.29;45.01;101069.34;5079433;28;20385;-66
2021/12/25 11:00:59;;;;;;;8.70;5.93;;;;;;;4.37;46.13;101064.09;5079559;28;20462;-66
2021/12/25 11:03:27;;;;;;;6.70;5.20;;;;;;;5.10;46.07;101060.03;5079802;28;20165;-67
2021/12/25 11:05:52;;;;;;;6.73;5.50;;;;;;;4.93;45.25;101061.97;5079368;28;20179;-66
2021/12/25 11:08:23;;;;;;;9.97;5.90;;;;;;;4.77;45.78;101049.31;5079261;28;20418;-66
2021/12/25 11:10:53;;;;;;;7.17;5.90;;;;;;;5.51;45.22;101049.44;5079689;28;20468;-66
2021/12/25 11:13:19;;;;;;;10.83;5.73;;;;;;;4.99;45.85;101050.97;5079072;28;20418;-66
2021/12/25 11:15:45;;;;;;;6.50;5.90;;;;;;;4.08;46.45;101063.81;5079808;28;20718;-66
2021/12/25 11:18:12;;;;;;;5.80;5.20;;;;;;;4.57;47.47;101059.72;5081048;28;20435;-66
2021/12/25 11:20:39;;;;;;;5.60;4.77;;;;;;;5.33;42.66;101045.34;5078945;28;20213;-66
2021/12/25 11:23:07;;;;;;;4.73;4.23;;;;;;;6.11;41.13;101042.84;5078891;28;20507;-67
2021/12/25 11:25:34;;;;;;;5.20;4.60;;;;;;;4.54;43.16;101055.31;5079318;28;20508;-66
2021/12/25 11:28:02;;;;;;;4.50;4.10;;;;;;;5.02;42.95;101043.34;5078807;28;20415;-66
2021/12/25 11:30:31;;;;;;;4.60;4.10;;;;;;;4.93;43.56;101043.88;5078870;28;20418;-66
2021/12/25 11:32:57;;;;;;;5.20;4.70;;;;;;;4.67;44.74;101040.34;5078975;28;20469;-66
2021/12/25 11:35:22;;;;;;;4.60;4.20;;;;;;;5.45;43.17;101044.91;5078755;28;20389;-66
2021/12/25 11:37:49;;;;;;;5.73;4.50;;;;;;;5.15;44.11;101050.72;5078687;28;20173;-66
2021/12/25 11:40:17;;;;;;;5.67;5.03;;;;;;;5.80;42.11;101053.00;5079087;28;20464;-66
2021/12/25 11:42:45;;;;;;;7.30;5.00;;;;;;;5.51;43.35;101054.59;5078409;28;20385;-66
2021/12/25 11:45:28;;;;;;;6.73;5.07;;;;;;;4.51;45.64;101054.34;5078770;28;20783;-66
2021/12/25 11:47:55;;;;;;;9.43;4.90;;;;;;;5.31;44.88;101054.75;5078609;28;20462;-66
2021/12/25 11:50:42;;;;;;;6.73;5.43;;;;;;;5.13;44.43;101054.97;5078667;28;20390;-66
2021/12/25 11:53:22;;;;;;;11.47;6.23;;;;;;;4.93;45.81;101055.94;5078505;28;20459;-66
2021/12/25 11:58:49;;;;;;;7.80;6.60;;;;;;;4.13;47.26;101058.84;5078096;28;20678;-65
2021/12/25 12:01:40;;;;;;;6.27;5.70;;;;;;;4.26;46.92;101068.81;5077781;28;20437;-65
2021/12/25 12:04:25;;;;;;;5.40;4.90;;;;;;;3.88;47.34;101055.22;5078226;28;20426;-66
2021/12/25 12:06:53;;;;;;;9.53;6.87;;;;;;;4.22;47.18;101054.94;5078413;28;20797;-67
2021/12/25 12:09:25;;;;;;;6.23;5.30;;;;;;;4.92;44.96;101052.47;5078377;28;20397;-66
2021/12/25 12:12:03;;;;;;;7.20;5.37;;;;;;;4.31;45.48;101054.41;5078260;28;20389;-66
2021/12/25 12:14:28;;;;;;;4.77;4.37;;;;;;;4.86;44.75;101041.91;5078183;28;20480;-66
2021/12/25 12:16:56;;;;;;;5.87;4.83;;;;;;;4.32;45.47;101045.84;5078491;28;20431;-66
2021/12/25 12:19:34;;;;;;;7.20;4.93;;;;;;;4.08;46.48;101047.47;5078160;28;20385;-66
2021/12/25 12:22:29;;;;;;;5.03;4.63;;;;;;;3.78;47.89;101048.81;5078018;28;20798;-66
2021/12/25 12:27:36;;;;;;;4.53;4.13;;;;;;;4.27;45.81;101049.09;5078201;28;20402;-66
2021/12/25 12:30:07;;;;;;;14.23;6.13;;;;;;;3.68;47.29;101038.91;5078082;28;20382;-67
2021/12/25 12:32:36;;;;;;;6.30;5.27;;;;;;;4.01;46.92;101041.16;5077960;28;20431;-67
2021/12/25 12:35:03;;;;;;;6.80;5.33;;;;;;;3.62;47.59;101049.84;5078124;28;20468;-67
2021/12/25 12:37:31;;;;;;;6.43;5.07;;;;;;;4.23;46.03;101048.06;5077914;28;20434;-67
2021/12/25 12:39:58;;;;;;;5.63;4.93;;;;;;;3.77;47.44;101051.34;5078390;28;20478;-67